sensor_id;sensor_type;location;lat;lon;timestamp;pressure;altitude;pressure_sealevel;temperature;humidity
7586;BME280;12459;42.646;23.292;2024-03-23T01:03:27;93678.00;;;4.74;69.22
7586;BME280;12459;42.646;23.292;2024-03-23T01:18:27;93719.63;;;4.66;69.97
7586;BME280;12459;42.646;23.292;2024-03-23T01:33:28;93574.78;;;3.95;71.07
7586;BME280;12459;42.646;23.292;2024-03-23T01:48:29;93508.66;;;3.15;69.88
7586;BME280;12459;42.646;23.292;2024-03-23T02:03:29;93596.75;;;3.39;68.66
7586;BME280;12459;42.646;23.292;2024-03-23T02:18:30;93768.59;;;5.06;69.06
7586;BME280;12459;42.646;23.292;2024-03-23T02:33:31;93751.59;;;4.17;69.94
7586;BME280;12459;42.646;23.292;2024-03-23T02:48:32;93402.72;;;2.82;67.61
7586;BME280;12459;42.646;23.292;2024-03-23T03:03:33;93516.00;;;2.76;69.87
7586;BME280;12459;42.646;23.292;2024-03-23T03:18:34;93542.78;;;2.98;70.88
7586;BME280;12459;42.646;23.292;2024-03-23T03:33:35;93549.63;;;2.76;72.48
7586;BME280;12459;42.646;23.292;2024-03-23T03:48:37;93654.97;;;3.88;72.44
7586;BME280;12459;42.646;23.292;2024-03-23T04:03:38;93588.72;;;3.09;73.79
7586;BME280;12459;42.646;23.292;2024-03-23T04:18:43;93637.53;;;3.11;75.04
7586;BME280;12459;42.646;23.292;2024-03-23T04:33:45;93588.91;;;3.19;75.31
7586;BME280;12459;42.646;23.292;2024-03-23T04:48:46;93429.09;;;3.05;71.86
7586;BME280;12459;42.646;23.292;2024-03-23T05:03:47;93566.28;;;3.52;76.29
7586;BME280;12459;42.646;23.292;2024-03-23T05:18:49;93697.13;;;5.75;71.82
7586;BME280;12459;42.646;23.292;2024-03-23T05:33:50;93786.53;;;7.14;68.25
7586;BME280;12459;42.646;23.292;2024-03-23T05:48:51;93629.25;;;6.75;67.72
7586;BME280;12459;42.646;23.292;2024-03-23T06:03:52;93544.81;;;6.79;65.91
7586;BME280;12459;42.646;23.292;2024-03-23T06:18:53;93695.59;;;8.44;62.91
7586;BME280;12459;42.646;23.292;2024-03-23T06:33:55;93647.47;;;8.58;60.86
7586;BME280;12459;42.646;23.292;2024-03-23T06:48:56;93594.38;;;8.71;60.71
7586;BME280;12459;42.646;23.292;2024-03-23T07:03:57;93556.47;;;8.90;58.93
7586;BME280;12459;42.646;23.292;2024-03-23T07:18:57;93641.06;;;9.70;57.51
7586;BME280;12459;42.646;23.292;2024-03-23T07:33:59;93563.47;;;9.70;58.51
7586;BME280;12459;42.646;23.292;2024-03-23T07:48:59;93564.53;;;10.13;55.70
7586;BME280;12459;42.646;23.292;2024-03-23T08:04:00;93571.31;;;10.59;54.98
7586;BME280;12459;42.646;23.292;2024-03-23T08:19:01;93651.19;;;11.56;54.56
7586;BME280;12459;42.646;23.292;2024-03-23T08:34:04;93509.97;;;10.92;53.72
7586;BME280;12459;42.646;23.292;2024-03-23T08:49:04;93525.44;;;11.31;51.53
7586;BME280;12459;42.646;23.292;2024-03-23T09:04:05;93521.13;;;12.03;50.67
7586;BME280;12459;42.646;23.292;2024-03-23T09:19:06;93465.13;;;12.02;48.75
7586;BME280;12459;42.646;23.292;2024-03-23T09:34:07;93527.94;;;13.00;46.26
7586;BME280;12459;42.646;23.292;2024-03-23T09:49:08;93478.25;;;12.72;45.26
7586;BME280;12459;42.646;23.292;2024-03-23T10:04:09;93536.06;;;14.23;46.55
7586;BME280;12459;42.646;23.292;2024-03-23T10:19:10;93432.88;;;14.10;43.29
7586;BME280;12459;42.646;23.292;2024-03-23T10:34:12;93485.19;;;14.92;44.93
7586;BME280;12459;42.646;23.292;2024-03-23T10:49:13;93409.50;;;15.08;41.75
7586;BME280;12459;42.646;23.292;2024-03-23T11:19:37;93435.47;;;16.49;40.96
7586;BME280;12459;42.646;23.292;2024-03-23T11:34:38;93372.88;;;16.29;40.41
7586;BME280;12459;42.646;23.292;2024-03-23T11:49:39;93272.72;;;16.60;38.37
7586;BME280;12459;42.646;23.292;2024-03-23T12:04:42;93331.63;;;17.14;39.50
7586;BME280;12459;42.646;23.292;2024-03-23T12:19:43;93112.06;;;16.30;38.58
7586;BME280;12459;42.646;23.292;2024-03-23T12:34:46;93277.03;;;17.07;37.36
7586;BME280;12459;42.646;23.292;2024-03-23T12:49:47;93128.91;;;16.52;33.42
7586;BME280;12459;42.646;23.292;2024-03-23T13:04:53;93250.53;;;17.38;33.39
7586;BME280;12459;42.646;23.292;2024-03-23T13:19:54;93221.81;;;17.13;31.44
7586;BME280;12459;42.646;23.292;2024-03-23T13:34:58;93123.59;;;17.13;31.13
7586;BME280;12459;42.646;23.292;2024-03-23T13:49:59;93015.34;;;16.16;31.87
7586;BME280;12459;42.646;23.292;2024-03-23T14:05:01;93168.31;;;16.90;33.06
7586;BME280;12459;42.646;23.292;2024-03-23T14:20:02;93166.81;;;16.71;33.94
7586;BME280;12459;42.646;23.292;2024-03-23T14:35:06;93112.22;;;16.54;32.06
7586;BME280;12459;42.646;23.292;2024-03-23T14:50:10;93039.97;;;16.27;31.68
7586;BME280;12459;42.646;23.292;2024-03-23T15:05:15;93078.72;;;16.42;34.27
7586;BME280;12459;42.646;23.292;2024-03-23T15:20:16;93097.34;;;16.58;34.40
7586;BME280;12459;42.646;23.292;2024-03-23T15:35:17;93098.81;;;15.86;33.75
7586;BME280;12459;42.646;23.292;2024-03-23T15:50:17;93066.78;;;15.17;35.31
7586;BME280;12459;42.646;23.292;2024-03-23T16:05:18;93071.94;;;14.62;39.46
7586;BME280;12459;42.646;23.292;2024-03-23T16:20:19;93055.31;;;13.86;40.89
7586;BME280;12459;42.646;23.292;2024-03-23T16:35:21;93060.41;;;14.05;42.81
7586;BME280;12459;42.646;23.292;2024-03-23T16:50:22;93070.88;;;14.91;39.77
7586;BME280;12459;42.646;23.292;2024-03-23T17:05:23;92976.78;;;14.40;40.33
7586;BME280;12459;42.646;23.292;2024-03-23T17:20:24;92948.69;;;13.97;39.56
7586;BME280;12459;42.646;23.292;2024-03-23T17:35:25;92941.03;;;14.18;38.89
7586;BME280;12459;42.646;23.292;2024-03-23T17:50:25;93059.72;;;14.80;39.62
7586;BME280;12459;42.646;23.292;2024-03-23T18:05:26;92887.59;;;13.63;39.56
7586;BME280;12459;42.646;23.292;2024-03-23T18:20:27;92962.59;;;13.96;39.22
7586;BME280;12459;42.646;23.292;2024-03-23T18:35:27;92913.69;;;13.54;39.92
7586;BME280;12459;42.646;23.292;2024-03-23T18:50:28;92983.69;;;14.41;39.09
7586;BME280;12459;42.646;23.292;2024-03-23T19:05:29;92840.31;;;13.62;39.14
7586;BME280;12459;42.646;23.292;2024-03-23T19:20:29;92964.22;;;13.93;38.83
7586;BME280;12459;42.646;23.292;2024-03-23T19:35:30;92958.72;;;13.75;39.75
7586;BME280;12459;42.646;23.292;2024-03-23T19:50:31;93014.94;;;13.38;42.47
7586;BME280;12459;42.646;23.292;2024-03-23T20:05:34;93055.53;;;12.39;46.65
7586;BME280;12459;42.646;23.292;2024-03-23T20:20:35;93074.47;;;12.06;47.97
7586;BME280;12459;42.646;23.292;2024-03-23T20:35:36;93045.38;;;11.27;50.12
7586;BME280;12459;42.646;23.292;2024-03-23T20:50:36;93013.63;;;10.41;53.53
7586;BME280;12459;42.646;23.292;2024-03-23T21:05:37;93138.13;;;10.33;55.66
7586;BME280;12459;42.646;23.292;2024-03-23T21:20:38;93144.78;;;10.01;56.56
7586;BME280;12459;42.646;23.292;2024-03-23T21:35:39;93130.09;;;9.89;57.79
7586;BME280;12459;42.646;23.292;2024-03-23T21:50:40;92986.22;;;8.37;60.06
7586;BME280;12459;42.646;23.292;2024-03-23T22:05:41;93097.13;;;8.72;62.57
7586;BME280;12459;42.646;23.292;2024-03-23T22:20:42;93100.50;;;8.12;63.76
7586;BME280;12459;42.646;23.292;2024-03-23T22:35:45;92845.88;;;6.94;62.71
7586;BME280;12459;42.646;23.292;2024-03-23T22:50:46;93066.94;;;8.48;62.41
7586;BME280;12459;42.646;23.292;2024-03-23T23:05:58;92968.03;;;8.25;60.32
7586;BME280;12459;42.646;23.292;2024-03-23T23:21:00;93092.63;;;8.31;65.08
7586;BME280;12459;42.646;23.292;2024-03-23T23:36:00;92937.28;;;8.17;62.49
7586;BME280;12459;42.646;23.292;2024-03-23T23:51:01;92935.56;;;7.04;65.59
